Time;durP1;ratioP1;P1;durP2;ratioP2;P2;SDS_P1;SDS_P2;PMS_P1;PMS_P2;Temp;Humidity;BMP_temperature;BMP_pressure;BME280_temperature;BME280_humidity;BME280_pressure;Samples;Min_cycle;Max_cycle;Signal;HPM_P1;HPM_P2
2023/01/13 00:00:19;;;;;;;1.40;1.20;;;4.70;99.90;;;;;;5039910;28;20365;-50
2023/01/13 00:02:46;;;;;;;2.00;1.77;;;4.70;99.90;;;;;;5062520;28;20730;-50
2023/01/13 00:05:13;;;;;;;1.73;1.20;;;4.80;99.90;;;;;;5061018;28;20273;-49
2023/01/13 00:07:40;;;;;;;2.53;1.43;;;4.80;99.90;;;;;;5065651;28;20275;-49
2023/01/13 00:10:11;;;;;;;2.10;1.30;;;4.90;99.90;;;;;;5073725;28;20228;-49
2023/01/13 00:12:40;;;;;;;2.23;1.60;;;4.90;99.90;;;;;;5062978;28;20212;-49
2023/01/13 00:15:08;;;;;;;1.57;1.27;;;4.80;99.90;;;;;;5048013;28;20737;-49
2023/01/13 00:17:35;;;;;;;4.93;1.57;;;4.90;99.90;;;;;;5063118;28;20600;-49
2023/01/13 00:20:02;;;;;;;1.10;0.90;;;5.00;99.90;;;;;;5074239;28;20634;-49
2023/01/13 00:22:29;;;;;;;1.57;1.00;;;4.90;99.90;;;;;;5074065;28;20202;-48
2023/01/13 00:24:57;;;;;;;2.50;1.23;;;4.90;99.90;;;;;;5074252;28;20282;-50
2023/01/13 00:27:26;;;;;;;1.47;1.37;;;5.00;99.90;;;;;;5069477;28;20300;-50
2023/01/13 00:29:53;;;;;;;0.80;0.80;;;4.90;99.90;;;;;;5056094;28;20222;-49
2023/01/13 00:32:20;;;;;;;1.40;1.30;;;4.90;99.90;;;;;;5043432;28;20679;-49
2023/01/13 00:34:47;;;;;;;1.90;1.13;;;4.90;99.90;;;;;;5033668;28;20207;-49
2023/01/13 00:37:14;;;;;;;2.13;0.90;;;4.90;99.90;;;;;;5034094;28;20205;-49
2023/01/13 00:39:41;;;;;;;1.63;1.20;;;4.90;99.90;;;;;;5048030;28;20629;-49
2023/01/13 00:44:55;;;;;;;1.43;1.00;;;4.80;99.90;;;;;;5056523;28;20209;-49
2023/01/13 00:47:23;;;;;;;1.90;1.00;;;4.80;99.90;;;;;;5073130;28;20591;-49
2023/01/13 00:49:50;;;;;;;1.53;0.90;;;4.70;99.90;;;;;;5035008;28;20345;-50
2023/01/13 00:52:17;;;;;;;0.80;0.80;;;4.70;99.90;;;;;;5042057;28;20204;-49
2023/01/13 00:54:44;;;;;;;2.23;1.40;;;4.70;99.90;;;;;;5053112;28;20269;-49
2023/01/13 00:57:14;;;;;;;2.57;1.20;;;4.70;99.90;;;;;;5059310;28;20202;-50
2023/01/13 00:59:41;;;;;;;2.13;1.33;;;4.80;99.90;;;;;;5052987;28;20232;-49
2023/01/13 01:02:11;;;;;;;1.40;1.00;;;5.00;99.90;;;;;;5053166;28;20232;-49
2023/01/13 01:04:38;;;;;;;1.03;0.73;;;5.20;99.90;;;;;;5051628;28;20198;-49
2023/01/13 01:07:05;;;;;;;2.87;0.90;;;5.20;99.90;;;;;;5052410;28;20218;-50
2023/01/13 01:09:33;;;;;;;1.20;1.10;;;5.20;99.90;;;;;;5057949;28;20280;-50
2023/01/13 01:12:01;;;;;;;0.60;0.60;;;5.20;99.90;;;;;;5072924;28;20281;-49
2023/01/13 01:14:28;;;;;;;1.70;1.30;;;5.20;99.90;;;;;;5059632;28;20744;-50
2023/01/13 01:16:55;;;;;;;1.73;0.70;;;5.20;99.90;;;;;;5059778;28;20289;-49
2023/01/13 01:19:23;;;;;;;1.00;0.87;;;5.10;99.90;;;;;;5060995;28;20219;-49
2023/01/13 01:21:50;;;;;;;2.27;1.03;;;5.00;99.90;;;;;;5052200;28;20206;-49
2023/01/13 01:24:17;;;;;;;0.90;0.80;;;5.00;99.90;;;;;;5055502;28;20197;-50
2023/01/13 01:26:44;;;;;;;2.23;0.87;;;5.00;99.90;;;;;;5052344;28;20227;-49
2023/01/13 01:29:14;;;;;;;2.73;0.80;;;4.90;99.90;;;;;;5055710;28;20264;-49
2023/01/13 01:31:41;;;;;;;1.60;1.13;;;4.90;99.90;;;;;;5053182;28;20199;-49
2023/01/13 01:34:08;;;;;;;0.87;0.83;;;4.90;99.90;;;;;;5057704;28;20201;-49
2023/01/13 01:36:36;;;;;;;0.70;0.70;;;4.80;99.90;;;;;;5061030;28;20191;-49
2023/01/13 01:39:04;;;;;;;2.40;0.70;;;4.80;99.90;;;;;;5063528;28;20235;-50
2023/01/13 01:41:33;;;;;;;1.10;1.00;;;5.00;99.90;;;;;;5033590;28;20207;-49
2023/01/13 01:44:01;;;;;;;0.80;0.80;;;5.10;99.90;;;;;;5052524;28;20273;-49
2023/01/13 01:46:34;;;;;;;0.50;0.50;;;5.20;99.90;;;;;;5051279;28;20219;-49
2023/01/13 01:49:10;;;;;;;0.87;0.50;;;5.30;99.90;;;;;;5059083;28;20217;-50
2023/01/13 01:51:42;;;;;;;0.60;0.60;;;5.40;99.90;;;;;;5069727;28;20256;-49
2023/01/13 01:54:12;;;;;;;1.93;0.60;;;5.50;99.90;;;;;;5066277;28;20230;-49
2023/01/13 01:56:41;;;;;;;0.93;0.60;;;5.60;99.90;;;;;;5060943;28;20195;-49
2023/01/13 01:59:30;;;;;;;0.70;0.70;;;5.60;99.90;;;;;;5065156;28;20237;-50
2023/01/13 02:01:57;;;;;;;2.50;0.50;;;5.70;99.90;;;;;;5050505;28;20611;-49
2023/01/13 02:04:27;;;;;;;2.10;0.63;;;5.80;99.90;;;;;;5056325;28;20200;-50
2023/01/13 02:06:56;;;;;;;2.00;0.40;;;5.80;99.90;;;;;;5053578;28;20226;-50
2023/01/13 02:09:26;;;;;;;0.63;0.63;;;5.80;99.90;;;;;;5063350;28;20695;-48
2023/01/13 02:14:38;;;;;;;1.80;0.90;;;5.80;99.90;;;;;;5036950;28;20214;-49
2023/01/13 02:17:24;;;;;;;0.40;0.40;;;5.90;99.90;;;;;;5057262;28;20191;-50
2023/01/13 02:20:24;;;;;;;0.50;0.30;;;5.90;99.90;;;;;;5050157;28;20231;-50
2023/01/13 02:26:32;;;;;;;0.53;0.47;;;6.00;99.90;;;;;;5071298;28;20202;-49
2023/01/13 02:32:02;;;;;;;0.70;0.40;;;6.10;99.90;;;;;;5048169;28;20206;-48
2023/01/13 02:34:36;;;;;;;0.83;0.77;;;6.10;99.90;;;;;;5059394;28;20204;-48
2023/01/13 02:37:09;;;;;;;1.33;0.47;;;6.20;99.90;;;;;;5070149;28;20198;-48
2023/01/13 02:39:45;;;;;;;1.30;0.40;;;6.10;99.90;;;;;;5059975;28;20232;-50
2023/01/13 02:45:11;;;;;;;3.33;1.43;;;6.00;99.90;;;;;;5062789;28;20261;-48
2023/01/13 02:47:44;;;;;;;0.40;0.40;;;6.10;99.90;;;;;;5047955;28;20320;-47
2023/01/13 02:50:16;;;;;;;0.50;0.50;;;6.10;99.90;;;;;;5052541;28;20574;-47
2023/01/13 02:52:48;;;;;;;2.13;0.40;;;5.90;99.90;;;;;;5069373;28;20224;-47
2023/01/13 02:55:19;;;;;;;1.53;0.40;;;5.80;99.90;;;;;;5071016;28;20689;-47
2023/01/13 02:57:49;;;;;;;0.50;0.50;;;5.80;99.90;;;;;;5057086;28;20266;-48
2023/01/13 03:00:18;;;;;;;0.63;0.63;;;5.80;99.90;;;;;;5049848;28;20239;-49
2023/01/13 03:02:47;;;;;;;1.30;0.37;;;5.80;99.90;;;;;;5059111;28;20256;-48
2023/01/13 03:05:16;;;;;;;1.27;0.50;;;5.80;99.90;;;;;;5036808;28;20988;-48
2023/01/13 03:08:14;;;;;;;0.40;0.40;;;5.80;99.90;;;;;;5045017;28;20634;-47
2023/01/13 03:10:52;;;;;;;0.93;0.60;;;5.80;99.90;;;;;;5054256;28;20199;-48
2023/01/13 03:13:47;;;;;;;0.17;0.17;;;5.90;99.90;;;;;;5061632;28;20203;-47
2023/01/13 03:16:23;;;;;;;2.43;0.23;;;6.00;99.90;;;;;;5074750;28;20630;-48
2023/01/13 03:19:01;;;;;;;0.27;0.27;;;5.90;99.90;;;;;;5060544;28;20223;-49
2023/01/13 03:21:35;;;;;;;14.93;6.83;;;5.80;99.90;;;;;;5060707;28;20276;-51
2023/01/13 03:24:06;;;;;;;3.00;1.17;;;5.80;99.90;;;;;;5051132;28;20210;-48
2023/01/13 03:26:40;;;;;;;1.50;0.40;;;5.80;99.90;;;;;;5071473;28;20196;-48
2023/01/13 03:29:14;;;;;;;0.73;0.40;;;5.80;99.90;;;;;;5074834;28;20224;-49
2023/01/13 03:31:47;;;;;;;0.20;0.20;;;5.80;99.90;;;;;;5074620;28;20758;-50
2023/01/13 03:34:21;;;;;;;1.40;0.40;;;5.80;99.90;;;;;;5067498;28;20210;-48
2023/01/13 03:36:52;;;;;;;0.43;0.40;;;5.90;99.90;;;;;;5054210;28;20254;-49
2023/01/13 03:39:26;;;;;;;0.47;0.27;;;5.90;99.90;;;;;;5049840;28;20235;-49
2023/01/13 03:41:58;;;;;;;1.03;0.30;;;6.00;99.90;;;;;;5074540;28;20206;-49
2023/01/13 03:44:31;;;;;;;0.40;0.40;;;6.10;99.90;;;;;;5074511;28;20273;-49
2023/01/13 03:47:12;;;;;;;0.27;0.27;;;6.00;99.90;;;;;;5055356;28;20227;-49
2023/01/13 03:49:46;;;;;;;0.57;0.40;;;5.90;99.90;;;;;;5062434;28;20639;-50
2023/01/13 03:52:19;;;;;;;0.90;0.50;;;5.90;99.90;;;;;;5054327;28;20669;-49
2023/01/13 03:54:50;;;;;;;0.40;0.37;;;5.90;99.90;;;;;;5052734;28;20671;-49
2023/01/13 03:57:23;;;;;;;2.50;0.20;;;6.00;99.90;;;;;;5054873;28;20637;-47
2023/01/13 03:59:54;;;;;;;0.40;0.30;;;6.10;99.90;;;;;;5064836;28;20318;-48
2023/01/13 04:02:29;;;;;;;0.30;0.30;;;6.00;99.90;;;;;;5063229;28;20204;-49
2023/01/13 04:05:02;;;;;;;0.90;0.30;;;6.00;99.90;;;;;;5043670;28;20261;-48
2023/01/13 04:07:39;;;;;;;0.60;0.40;;;6.10;99.90;;;;;;5065506;28;20249;-49
2023/01/13 04:10:09;;;;;;;0.30;0.30;;;6.00;99.90;;;;;;5058597;28;20221;-49
2023/01/13 04:15:26;;;;;;;0.30;0.30;;;5.90;99.90;;;;;;5026568;28;20275;-48
2023/01/13 04:17:54;;;;;;;0.93;0.30;;;5.90;99.90;;;;;;5033849;28;20200;-49
2023/01/13 04:20:22;;;;;;;0.30;0.30;;;5.90;99.90;;;;;;5039866;28;20229;-49
2023/01/13 04:22:49;;;;;;;0.40;0.40;;;6.00;99.90;;;;;;5052094;28;20195;-47
2023/01/13 04:25:16;;;;;;;0.40;0.40;;;5.90;99.90;;;;;;5061617;28;20204;-48
2023/01/13 04:27:43;;;;;;;0.40;0.40;;;5.90;99.90;;;;;;5058999;28;20268;-48
2023/01/13 04:30:11;;;;;;;0.67;0.50;;;5.80;99.90;;;;;;5040015;28;20247;-48
2023/01/13 04:32:38;;;;;;;1.53;1.03;;;5.80;99.90;;;;;;5033419;28;20730;-48
2023/01/13 04:35:07;;;;;;;0.93;0.40;;;5.70;99.90;;;;;;5032925;28;20385;-48
2023/01/13 04:37:35;;;;;;;1.23;0.43;;;5.60;99.90;;;;;;5035317;28;20591;-48
2023/01/13 04:40:02;;;;;;;1.73;0.50;;;5.50;99.90;;;;;;5067432;28;20731;-48
2023/01/13 04:42:29;;;;;;;0.47;0.47;;;5.50;99.90;;;;;;5053651;28;20639;-49
2023/01/13 04:44:56;;;;;;;0.57;0.50;;;5.50;99.90;;;;;;5060900;28;20251;-48
2023/01/13 04:47:23;;;;;;;2.10;0.50;;;5.50;99.90;;;;;;5057302;28;20711;-50
2023/01/13 04:49:50;;;;;;;0.53;0.40;;;5.40;99.90;;;;;;5057399;28;20795;-48
2023/01/13 04:52:17;;;;;;;0.47;0.47;;;5.40;99.90;;;;;;5064743;28;20674;-49
2023/01/13 04:54:45;;;;;;;0.60;0.40;;;5.40;99.90;;;;;;5048401;28;20276;-48
2023/01/13 04:57:12;;;;;;;0.50;0.50;;;5.40;99.90;;;;;;5033150;28;20240;-48
2023/01/13 04:59:40;;;;;;;0.53;0.53;;;5.40;99.90;;;;;;5055918;28;20671;-49
2023/01/13 05:02:18;;;;;;;0.87;0.37;;;5.30;99.90;;;;;;5058489;28;20203;-50
2023/01/13 05:04:45;;;;;;;0.73;0.40;;;5.30;99.90;;;;;;5037271;28;20204;-47
2023/01/13 05:07:13;;;;;;;0.40;0.40;;;5.30;99.90;;;;;;5052758;28;20307;-48
2023/01/13 05:09:40;;;;;;;1.03;0.50;;;5.20;99.90;;;;;;5052817;28;20772;-49
2023/01/13 05:17:40;;;;;;;0.90;0.30;;;5.30;99.90;;;;;;5061296;28;20337;-49
2023/01/13 05:20:09;;;;;;;0.40;0.40;;;5.30;99.90;;;;;;5047950;28;20230;-48
2023/01/13 05:25:24;;;;;;;0.67;0.60;;;5.40;99.90;;;;;;5072428;28;20199;-47
2023/01/13 05:27:54;;;;;;;0.83;0.53;;;5.40;99.90;;;;;;5062813;28;20223;-47
2023/01/13 05:30:23;;;;;;;2.10;0.50;;;5.50;99.90;;;;;;5057835;28;20224;-47
2023/01/13 05:32:50;;;;;;;1.50;0.33;;;5.50;99.90;;;;;;5062096;28;20196;-48
2023/01/13 05:35:17;;;;;;;0.30;0.30;;;5.50;99.90;;;;;;5072313;28;20608;-48
2023/01/13 05:37:44;;;;;;;1.37;0.50;;;5.50;99.90;;;;;;5053063;28;20214;-49
2023/01/13 05:43:20;;;;;;;0.67;0.40;;;5.50;99.90;;;;;;5060611;28;20677;-50
2023/01/13 05:45:48;;;;;;;0.80;0.60;;;5.50;99.90;;;;;;5039372;28;20260;-49
2023/01/13 05:48:16;;;;;;;1.33;0.60;;;5.50;99.90;;;;;;5032141;28;20301;-47
2023/01/13 05:50:43;;;;;;;0.97;0.63;;;5.50;99.90;;;;;;5032388;28;20258;-48
2023/01/13 05:53:10;;;;;;;0.50;0.50;;;5.50;99.90;;;;;;5031952;28;20267;-48
2023/01/13 05:55:39;;;;;;;0.40;0.40;;;5.50;99.90;;;;;;5045397;28;20205;-49
2023/01/13 05:58:07;;;;;;;1.63;0.73;;;5.40;99.90;;;;;;5058790;28;20206;-48
2023/01/13 06:00:35;;;;;;;1.37;0.80;;;5.40;99.90;;;;;;5051809;28;20284;-47
2023/01/13 06:03:02;;;;;;;2.40;0.83;;;5.40;99.90;;;;;;5058041;28;20202;-48
2023/01/13 06:05:29;;;;;;;0.97;0.97;;;5.40;99.90;;;;;;5068076;28;20615;-49
2023/01/13 06:07:57;;;;;;;3.67;0.93;;;5.40;99.90;;;;;;5056703;28;20581;-49
2023/01/13 06:10:24;;;;;;;1.40;0.43;;;5.40;99.90;;;;;;5046795;28;20767;-47
2023/01/13 06:12:51;;;;;;;0.50;0.40;;;5.40;99.90;;;;;;5050491;28;20205;-50
2023/01/13 06:15:20;;;;;;;0.30;0.30;;;5.50;99.90;;;;;;5051506;28;20208;-48
2023/01/13 06:17:47;;;;;;;2.07;0.53;;;5.50;99.90;;;;;;5050929;28;20207;-50
2023/01/13 06:20:15;;;;;;;2.03;0.30;;;5.60;99.90;;;;;;5058785;28;20254;-48
2023/01/13 06:22:45;;;;;;;1.33;0.37;;;5.60;99.90;;;;;;5069493;28;20199;-48
2023/01/13 06:25:19;;;;;;;0.50;0.50;;;5.70;99.90;;;;;;5058822;28;20740;-48
2023/01/13 06:27:46;;;;;;;0.30;0.30;;;5.70;99.90;;;;;;5045837;28;20593;-48
2023/01/13 06:30:14;;;;;;;0.30;0.30;;;5.70;99.90;;;;;;5050043;28;20273;-49
2023/01/13 06:32:46;;;;;;;0.50;0.33;;;5.80;99.90;;;;;;5050534;28;20665;-47
2023/01/13 06:35:16;;;;;;;1.27;0.50;;;5.70;99.90;;;;;;5068257;28;20202;-49
2023/01/13 06:37:45;;;;;;;0.67;0.30;;;5.70;99.90;;;;;;5051016;28;20203;-50
2023/01/13 06:40:14;;;;;;;0.40;0.40;;;5.70;99.90;;;;;;5051200;28;20629;-48
2023/01/13 06:45:29;;;;;;;2.70;0.47;;;5.70;99.90;;;;;;5042234;28;20289;-48
2023/01/13 06:47:59;;;;;;;1.53;0.40;;;5.70;99.90;;;;;;5031400;28;20220;-50
2023/01/13 06:50:27;;;;;;;0.87;0.40;;;5.70;99.90;;;;;;5049939;28;20303;-48
2023/01/13 06:52:54;;;;;;;1.33;0.60;;;5.60;99.90;;;;;;5046198;28;20235;-51
2023/01/13 06:55:21;;;;;;;0.50;0.40;;;5.60;99.90;;;;;;5036435;28;20203;-50
2023/01/13 06:57:50;;;;;;;0.50;0.50;;;5.60;99.90;;;;;;5060934;28;20204;-51
2023/01/13 07:00:18;;;;;;;0.40;0.30;;;5.70;99.90;;;;;;5059783;28;20289;-50
2023/01/13 07:02:45;;;;;;;1.60;0.40;;;5.60;99.90;;;;;;5046804;28;20680;-48
2023/01/13 07:05:15;;;;;;;0.70;0.40;;;5.60;99.90;;;;;;5051124;28;20203;-52
2023/01/13 07:07:42;;;;;;;2.40;0.60;;;5.60;99.90;;;;;;5049962;28;20262;-48
2023/01/13 07:10:11;;;;;;;0.70;0.50;;;5.60;99.90;;;;;;5047818;28;20225;-50
2023/01/13 07:15:21;;;;;;;0.60;0.60;;;5.60;99.90;;;;;;5030606;28;20303;-49
2023/01/13 07:17:48;;;;;;;0.67;0.60;;;5.60;99.90;;;;;;5049954;28;20563;-49
2023/01/13 07:20:17;;;;;;;0.50;0.50;;;5.60;99.90;;;;;;5055911;28;20221;-51
2023/01/13 07:22:44;;;;;;;1.17;1.00;;;5.70;99.90;;;;;;5062678;28;20199;-50
2023/01/13 07:25:12;;;;;;;1.27;1.13;;;5.70;99.90;;;;;;5069063;28;20203;-50
2023/01/13 07:27:39;;;;;;;2.50;1.37;;;5.70;99.90;;;;;;5047692;28;20202;-49
2023/01/13 07:30:07;;;;;;;1.37;1.27;;;5.80;99.90;;;;;;5049642;28;20224;-49
2023/01/13 07:32:34;;;;;;;2.13;1.10;;;5.90;99.90;;;;;;5059969;28;20213;-49
2023/01/13 07:35:04;;;;;;;2.13;1.93;;;5.90;99.90;;;;;;5056942;28;20207;-49
2023/01/13 07:37:35;;;;;;;1.10;1.00;;;5.90;99.90;;;;;;5058684;28;20262;-50
2023/01/13 07:40:03;;;;;;;1.43;1.40;;;6.00;99.90;;;;;;5070252;28;20220;-48
2023/01/13 07:45:14;;;;;;;2.20;1.07;;;5.90;99.90;;;;;;5055295;28;20214;-49
2023/01/13 07:47:41;;;;;;;0.60;0.60;;;5.90;99.90;;;;;;5061032;28;20201;-51
2023/01/13 07:50:10;;;;;;;1.83;0.53;;;5.90;99.90;;;;;;5050444;28;20276;-50
2023/01/13 07:52:38;;;;;;;1.40;0.43;;;5.90;99.90;;;;;;5042991;28;20216;-49
2023/01/13 07:55:06;;;;;;;0.90;0.40;;;5.90;99.90;;;;;;5048218;28;20576;-51
2023/01/13 07:57:33;;;;;;;2.37;1.30;;;6.00;99.90;;;;;;5056755;28;20193;-51
2023/01/13 08:00:00;;;;;;;1.97;0.80;;;6.10;99.90;;;;;;5051072;28;20237;-49
2023/01/13 08:02:27;;;;;;;1.63;1.00;;;6.10;99.90;;;;;;5055109;28;20843;-51
2023/01/13 08:04:54;;;;;;;3.00;0.87;;;6.10;99.90;;;;;;5051856;28;20210;-50
2023/01/13 08:07:21;;;;;;;1.90;0.53;;;6.10;99.90;;;;;;5052965;28;20203;-49
2023/01/13 08:09:50;;;;;;;1.20;0.70;;;6.10;99.90;;;;;;5055750;28;20235;-50
2023/01/13 08:15:01;;;;;;;0.67;0.67;;;6.10;99.90;;;;;;5054126;28;20276;-51
2023/01/13 08:17:28;;;;;;;1.43;1.33;;;6.10;99.90;;;;;;5052672;28;20211;-50
2023/01/13 08:19:55;;;;;;;1.73;0.97;;;6.20;99.90;;;;;;5053131;28;20251;-51
2023/01/13 08:22:22;;;;;;;1.07;0.57;;;6.30;99.90;;;;;;5056618;28;20274;-50
2023/01/13 08:24:51;;;;;;;2.00;1.30;;;6.40;99.90;;;;;;5048783;28;20946;-50
2023/01/13 08:27:19;;;;;;;1.27;0.90;;;6.20;99.90;;;;;;5061627;28;20203;-49
2023/01/13 08:29:46;;;;;;;1.03;0.57;;;6.50;99.90;;;;;;5072214;28;20267;-51
2023/01/13 08:32:13;;;;;;;1.17;0.80;;;6.60;99.90;;;;;;5073730;28;20207;-49
2023/01/13 08:34:40;;;;;;;0.70;0.60;;;6.60;99.90;;;;;;5065589;28;20208;-51
2023/01/13 08:37:09;;;;;;;1.73;0.70;;;6.70;99.90;;;;;;5053328;28;20221;-49
2023/01/13 08:39:36;;;;;;;2.20;0.53;;;6.70;99.90;;;;;;5046721;28;20227;-51
2023/01/13 08:42:05;;;;;;;1.43;0.67;;;6.80;99.90;;;;;;5047325;28;20256;-50
2023/01/13 08:44:32;;;;;;;2.93;0.87;;;6.90;99.90;;;;;;5061529;28;20205;-50
2023/01/13 08:46:59;;;;;;;0.90;0.80;;;6.90;99.90;;;;;;5060830;28;20718;-50
2023/01/13 08:49:26;;;;;;;1.47;0.50;;;6.90;99.90;;;;;;5052946;28;20696;-50
2023/01/13 08:51:54;;;;;;;0.40;0.40;;;7.00;99.90;;;;;;5049385;28;20208;-51
2023/01/13 08:54:21;;;;;;;2.63;0.50;;;7.00;99.90;;;;;;5058148;28;20660;-49
2023/01/13 08:56:48;;;;;;;0.47;0.40;;;7.20;99.90;;;;;;5064741;28;20201;-49
2023/01/13 08:59:18;;;;;;;5.53;0.50;;;7.30;99.90;;;;;;5073079;28;20228;-49
2023/01/13 09:01:45;;;;;;;1.67;0.40;;;7.40;99.90;;;;;;5066270;28;20669;-50
2023/01/13 09:04:16;;;;;;;1.13;0.40;;;7.40;99.90;;;;;;5053018;28;20204;-51
2023/01/13 09:06:43;;;;;;;3.67;0.60;;;7.30;99.90;;;;;;5059761;28;20234;-50
2023/01/13 09:09:10;;;;;;;0.40;0.40;;;7.30;99.90;;;;;;5050770;28;20232;-50
2023/01/13 09:14:28;;;;;;;0.93;0.60;;;7.40;99.90;;;;;;5053275;28;20270;-49
2023/01/13 09:16:55;;;;;;;0.40;0.40;;;7.40;99.90;;;;;;5059972;28;20198;-49
2023/01/13 09:19:22;;;;;;;1.63;0.40;;;7.50;99.90;;;;;;5059286;28;20705;-50
2023/01/13 09:21:51;;;;;;;10.07;2.57;;;7.70;99.90;;;;;;5060956;28;20568;-49
2023/01/13 09:24:18;;;;;;;1.40;0.60;;;7.70;99.90;;;;;;5052909;28;20202;-49
2023/01/13 09:26:45;;;;;;;1.93;0.57;;;7.80;99.90;;;;;;5052659;28;20216;-50
2023/01/13 09:29:12;;;;;;;2.80;0.60;;;7.80;99.90;;;;;;5052388;28;20226;-49
2023/01/13 09:31:41;;;;;;;0.50;0.50;;;7.80;99.90;;;;;;5052303;28;20207;-51
2023/01/13 09:36:55;;;;;;;0.53;0.53;;;7.70;99.90;;;;;;5059043;28;20206;-48
2023/01/13 09:39:22;;;;;;;1.27;1.17;;;7.60;99.90;;;;;;5064025;28;20214;-49
2023/01/13 09:44:47;;;;;;;3.73;1.00;;;7.70;99.90;;;;;;5072322;28;20205;-49
2023/01/13 09:47:23;;;;;;;1.07;0.70;;;7.80;99.90;;;;;;5063446;28;20203;-50
2023/01/13 09:49:50;;;;;;;1.37;0.73;;;7.80;99.90;;;;;;5052459;28;20418;-50
2023/01/13 09:52:20;;;;;;;0.93;0.67;;;7.80;99.90;;;;;;5062592;28;20197;-49
2023/01/13 09:54:53;;;;;;;0.80;0.80;;;7.80;99.90;;;;;;5072270;28;20278;-50
2023/01/13 09:57:21;;;;;;;1.80;0.60;;;7.70;99.90;;;;;;5071623;28;20315;-50
2023/01/13 09:59:49;;;;;;;1.50;1.00;;;7.60;99.90;;;;;;5071753;28;20668;-50
2023/01/13 10:02:31;;;;;;;3.00;0.90;;;7.50;99.90;;;;;;5072023;28;20210;-50
2023/01/13 10:05:10;;;;;;;0.60;0.60;;;7.40;99.90;;;;;;5060565;28;20203;-50
2023/01/13 10:07:41;;;;;;;1.70;0.80;;;7.40;99.90;;;;;;5069460;28;20252;-48
2023/01/13 10:10:12;;;;;;;1.47;1.33;;;7.50;99.90;;;;;;5071633;28;20221;-50
2023/01/13 10:15:27;;;;;;;4.07;1.20;;;7.50;99.90;;;;;;5072201;28;20720;-49
2023/01/13 10:18:07;;;;;;;0.60;0.60;;;7.70;99.90;;;;;;5060916;28;20202;-51
2023/01/13 10:20:41;;;;;;;4.10;1.17;;;7.80;99.90;;;;;;5054167;28;20272;-50
2023/01/13 10:23:21;;;;;;;3.23;1.20;;;7.80;99.90;;;;;;5051834;28;20208;-49
2023/01/13 10:25:58;;;;;;;1.20;1.10;;;7.90;99.90;;;;;;5051517;28;20202;-50
2023/01/13 10:28:25;;;;;;;1.83;0.93;;;8.00;99.90;;;;;;5051348;28;20204;-50
2023/01/13 10:30:52;;;;;;;1.13;1.03;;;8.20;99.90;;;;;;5053168;28;20276;-51
2023/01/13 10:33:27;;;;;;;3.27;1.20;;;8.30;99.90;;;;;;5062655;28;20665;-52
2023/01/13 10:35:58;;;;;;;2.70;1.20;;;8.40;99.90;;;;;;5053681;28;20256;-50
2023/01/13 10:38:27;;;;;;;3.40;1.93;;;8.50;99.90;;;;;;5050511;28;20203;-50
2023/01/13 10:40:57;;;;;;;4.30;2.23;;;8.50;99.90;;;;;;5062577;28;20192;-50
2023/01/13 10:43:24;;;;;;;6.07;2.57;;;8.50;99.90;;;;;;5071684;28;20558;-49
2023/01/13 10:46:02;;;;;;;6.23;3.10;;;8.50;99.90;;;;;;5058127;28;20216;-49
2023/01/13 10:48:40;;;;;;;2.13;1.93;;;8.40;99.90;;;;;;5055188;28;20205;-50
2023/01/13 10:51:17;;;;;;;0.93;0.80;;;8.40;99.90;;;;;;5031321;28;20721;-51
2023/01/13 10:53:59;;;;;;;2.77;0.80;;;8.40;99.90;;;;;;5031343;28;20219;-51
2023/01/13 10:56:28;;;;;;;3.23;1.27;;;8.30;99.90;;;;;;5035077;28;20203;-50
2023/01/13 10:59:13;;;;;;;3.83;1.10;;;8.30;99.90;;;;;;5055036;28;20651;-49
2023/01/13 11:01:42;;;;;;;4.53;0.70;;;8.30;99.90;;;;;;5069209;28;20197;-50
2023/01/13 11:04:31;;;;;;;1.37;1.07;;;8.20;99.90;;;;;;5071279;28;20206;-51
2023/01/13 11:07:00;;;;;;;0.87;0.63;;;8.20;99.90;;;;;;5063945;28;20210;-51
2023/01/13 11:09:28;;;;;;;0.70;0.70;;;8.00;99.90;;;;;;5062381;28;20233;-51
2023/01/13 11:11:57;;;;;;;2.57;0.50;;;7.90;99.90;;;;;;5063598;28;20203;-49
2023/01/13 11:14:41;;;;;;;0.90;0.40;;;7.90;99.90;;;;;;5061711;28;20206;-49
2023/01/13 11:17:37;;;;;;;2.63;1.40;;;8.00;99.90;;;;;;5051770;28;20202;-50
2023/01/13 11:20:16;;;;;;;1.07;0.73;;;8.10;99.90;;;;;;5056909;28;20221;-50
2023/01/13 11:22:45;;;;;;;1.23;0.47;;;8.40;99.90;;;;;;5071192;28;20581;-50
2023/01/13 11:25:18;;;;;;;1.73;1.23;;;8.70;99.90;;;;;;5063091;28;20286;-48
2023/01/13 11:27:51;;;;;;;2.40;1.20;;;8.80;99.90;;;;;;5052079;28;20435;-50
2023/01/13 11:30:28;;;;;;;3.33;1.77;;;8.80;99.90;;;;;;5051193;28;20288;-49
2023/01/13 11:33:29;;;;;;;1.77;1.23;;;8.70;99.90;;;;;;5055056;28;20206;-51
2023/01/13 11:36:06;;;;;;;2.77;1.43;;;8.70;99.90;;;;;;5062814;28;20302;-50
2023/01/13 11:38:40;;;;;;;1.33;1.13;;;8.50;99.90;;;;;;5060425;28;20644;-50
2023/01/13 11:41:14;;;;;;;2.33;2.10;;;8.60;99.90;;;;;;5062878;28;20203;-49
2023/01/13 11:43:50;;;;;;;1.70;1.20;;;8.60;99.90;;;;;;5054726;28;20203;-49
2023/01/13 11:46:17;;;;;;;1.20;1.10;;;8.50;99.90;;;;;;5053378;28;20226;-50
2023/01/13 11:48:44;;;;;;;3.53;1.60;;;8.50;99.90;;;;;;5062944;28;20223;-50
2023/01/13 11:51:25;;;;;;;1.50;1.40;;;8.50;99.90;;;;;;5074390;28;20250;-48
2023/01/13 11:54:07;;;;;;;5.07;2.07;;;8.50;99.90;;;;;;5049139;28;20269;-50
2023/01/13 11:56:55;;;;;;;2.10;1.70;;;8.60;99.90;;;;;;5071196;28;20573;-50
2023/01/13 11:59:57;;;;;;;3.73;2.33;;;8.80;99.90;;;;;;5034169;28;20235;-51
2023/01/13 12:02:37;;;;;;;3.67;1.43;;;8.90;99.90;;;;;;5034843;28;20208;-50
2023/01/13 12:05:14;;;;;;;1.90;1.80;;;8.80;99.90;;;;;;5055329;28;20661;-50
2023/01/13 12:07:52;;;;;;;3.17;1.90;;;8.80;99.90;;;;;;5057990;28;20199;-50
2023/01/13 12:10:35;;;;;;;2.77;2.57;;;8.70;99.90;;;;;;5059605;28;20226;-51
2023/01/13 12:13:13;;;;;;;2.63;1.97;;;8.70;99.90;;;;;;5034142;28;20204;-51
2023/01/13 12:16:04;;;;;;;4.63;2.80;;;8.70;99.90;;;;;;5034293;28;20203;-48
2023/01/13 12:18:55;;;;;;;4.87;2.70;;;8.60;99.90;;;;;;5061358;28;20206;-50
2023/01/13 12:21:23;;;;;;;4.17;3.60;;;8.60;99.90;;;;;;5034223;28;20690;-50
2023/01/13 12:24:11;;;;;;;4.50;3.57;;;8.60;99.90;;;;;;5034461;28;20226;-51
2023/01/13 12:26:42;;;;;;;4.50;3.90;;;8.60;99.90;;;;;;5060805;28;20205;-50
2023/01/13 12:29:14;;;;;;;5.17;3.77;;;8.70;99.90;;;;;;5061012;28;20217;-50
2023/01/13 12:31:43;;;;;;;6.20;3.30;;;8.70;99.90;;;;;;5053701;28;20200;-50
2023/01/13 12:34:43;;;;;;;4.50;4.07;;;8.70;99.90;;;;;;5053444;28;20294;-49
2023/01/13 12:37:22;;;;;;;3.87;1.50;;;8.80;99.90;;;;;;5057806;28;20202;-49
2023/01/13 12:40:01;;;;;;;1.40;0.90;;;8.90;99.90;;;;;;5065291;28;20264;-51
2023/01/13 12:45:27;;;;;;;0.80;0.80;;;8.80;99.90;;;;;;5033647;28;20533;-50
2023/01/13 12:47:55;;;;;;;1.90;0.53;;;8.70;99.90;;;;;;5055154;28;20202;-49
2023/01/13 12:50:42;;;;;;;0.53;0.43;;;8.90;99.90;;;;;;5068347;28;20264;-50
2023/01/13 12:53:35;;;;;;;1.53;0.60;;;8.80;99.90;;;;;;5073268;28;20210;-53
2023/01/13 12:56:38;;;;;;;1.23;0.50;;;8.70;99.90;;;;;;5067559;28;20300;-49
2023/01/13 12:59:49;;;;;;;2.37;0.70;;;8.60;99.90;;;;;;5045967;28;20584;-50
2023/01/13 13:02:29;;;;;;;0.77;0.77;;;8.80;99.90;;;;;;5053277;28;20627;-49
2023/01/13 13:04:58;;;;;;;1.93;1.23;;;8.90;99.90;;;;;;5052935;28;20202;-49
2023/01/13 13:07:40;;;;;;;0.10;0.10;;;8.90;99.90;;;;;;5056324;28;20253;-49
2023/01/13 13:10:16;;;;;;;4.43;0.37;;;9.00;99.90;;;;;;5059105;28;20646;-50
2023/01/13 13:15:39;;;;;;;0.30;0.10;;;9.10;99.90;;;;;;5064844;28;20212;-49
2023/01/13 13:18:27;;;;;;;0.37;0.10;;;9.10;99.90;;;;;;5060190;28;20624;-50
2023/01/13 13:21:03;;;;;;;0.30;0.10;;;8.90;99.90;;;;;;5072598;28;20207;-51
2023/01/13 13:23:49;;;;;;;0.10;0.10;;;8.90;99.90;;;;;;5072733;28;20301;-50
2023/01/13 13:26:31;;;;;;;0.07;0.00;;;8.90;99.90;;;;;;5066968;28;20203;-50
2023/01/13 13:29:20;;;;;;;0.33;0.10;;;8.80;99.90;;;;;;5049242;28;20223;-50
2023/01/13 13:32:15;;;;;;;0.00;0.00;;;8.80;99.90;;;;;;5060638;28;20223;-49
2023/01/13 13:34:49;;;;;;;0.10;0.10;;;8.80;99.90;;;;;;5018662;28;20240;-49
2023/01/13 13:49:10;;;;;;;0.30;0.00;;;8.40;99.90;;;;;;5051193;28;20226;-49
2023/01/13 13:51:41;;;;;;;0.40;0.10;;;8.20;99.90;;;;;;5072055;28;20227;-49
2023/01/13 13:54:11;;;;;;;0.20;0.20;;;8.00;99.90;;;;;;5071034;28;20211;-49
2023/01/13 13:56:43;;;;;;;0.10;0.10;;;8.10;99.90;;;;;;5062480;28;20202;-50
2023/01/13 13:59:12;;;;;;;1.47;0.17;;;8.20;99.90;;;;;;5063471;28;20368;-49
2023/01/13 14:01:44;;;;;;;0.10;0.10;;;8.10;99.90;;;;;;5061803;28;20289;-50
2023/01/13 14:04:16;;;;;;;1.33;0.10;;;8.00;99.90;;;;;;5060480;28;20630;-50
2023/01/13 14:06:50;;;;;;;0.30;0.10;;;7.90;99.90;;;;;;5059326;28;20742;-51
2023/01/13 14:09:18;;;;;;;1.03;0.13;;;7.80;99.90;;;;;;5063238;28;20214;-50
2023/01/13 14:11:58;;;;;;;0.77;0.10;;;7.90;99.90;;;;;;5071495;28;20221;-50
2023/01/13 14:14:25;;;;;;;1.47;0.00;;;8.00;99.90;;;;;;5071597;28;20260;-50
2023/01/13 14:16:54;;;;;;;0.30;0.20;;;8.00;99.90;;;;;;5058393;28;20206;-49
2023/01/13 14:19:29;;;;;;;2.67;0.10;;;8.00;99.90;;;;;;5051293;28;20230;-50
2023/01/13 14:21:57;;;;;;;0.83;0.10;;;8.00;99.90;;;;;;5071397;28;20258;-50
2023/01/13 14:24:24;;;;;;;0.20;0.20;;;7.90;99.90;;;;;;5071762;28;20306;-48
2023/01/13 14:26:52;;;;;;;0.50;0.30;;;8.00;99.90;;;;;;5057653;28;20208;-49
2023/01/13 14:29:21;;;;;;;0.20;0.20;;;8.00;99.90;;;;;;5063156;28;20230;-49